SDG075 LICC-LICD
Flight info
| Callsign | SDG075 |
|---|---|
| Flight time | N/A |
| Altitude | 15000 |
| Route | NELDA N573 TOVMA |
| Aircraft | B738/M-SDG075/L |
Departure
| Time | 2026-04-30 14:10 |
|---|---|
| Airport | Catania-Fontanarossa Airport (LICC) |
Arrival
| Time | N/A |
|---|---|
| Airport | Lampedusa Airport (LICD) |
| Time | Latitude | Longitude | Altitude | Speed | Heading |
|---|---|---|---|---|---|
| 2026-04-30 13:56 | 37.46839 | 15.05646 | 47 ft | 0 kts | 354° |
| 2026-04-30 14:00 | 37.46834 | 15.05646 | 74 ft | 2 kts | 354° |
| 2026-04-30 14:00 | 37.46801 | 15.05651 | 43 ft | 2 kts | 354° |
| 2026-04-30 14:00 | 37.46785 | 15.05653 | 41 ft | 2 kts | 343° |
| 2026-04-30 14:01 | 37.46770 | 15.05662 | 41 ft | 2 kts | 300° |
| 2026-04-30 14:01 | 37.46766 | 15.05675 | 39 ft | 1 kts | 272° |
| 2026-04-30 14:01 | 37.46766 | 15.05679 | 39 ft | 0 kts | 270° |
| 2026-04-30 14:06 | 37.46765 | 15.05643 | 44 ft | 7 kts | 264° |
| 2026-04-30 14:06 | 37.46751 | 15.05510 | 45 ft | 6 kts | 248° |
| 2026-04-30 14:07 | 37.46694 | 15.05468 | 45 ft | 6 kts | 188° |
| 2026-04-30 14:07 | 37.46682 | 15.05467 | 45 ft | 0 kts | 185° |
| 2026-04-30 14:08 | 37.46676 | 15.05466 | 45 ft | 5 kts | 183° |
| 2026-04-30 14:09 | 37.46668 | 15.05466 | 45 ft | 1 kts | 181° |
| 2026-04-30 14:09 | 37.46663 | 15.05466 | 45 ft | 2 kts | 178° |
| 2026-04-30 14:09 | 37.46595 | 15.05580 | 41 ft | 2 kts | 85° |
| 2026-04-30 14:10 | 37.46603 | 15.05703 | 40 ft | 47 kts | 85° |
| 2026-04-30 14:10 | 37.46665 | 15.06467 | 38 ft | 126 kts | 84° |
| 2026-04-30 14:10 | 37.46780 | 15.07839 | 168 ft | 181 kts | 84° |
| 2026-04-30 14:10 | 37.46897 | 15.09397 | 1306 ft | 166 kts | 85° |
| 2026-04-30 14:11 | 37.47031 | 15.10770 | 2513 ft | 163 kts | 79° |
| 2026-04-30 14:11 | 37.47266 | 15.12290 | 2863 ft | 193 kts | 78° |
| 2026-04-30 14:11 | 37.47541 | 15.14047 | 3227 ft | 212 kts | 78° |
| 2026-04-30 14:11 | 37.47823 | 15.15912 | 3760 ft | 220 kts | 78° |
| 2026-04-30 14:12 | 37.48103 | 15.17837 | 4353 ft | 225 kts | 78° |
| 2026-04-30 14:12 | 37.48380 | 15.19796 | 4981 ft | 230 kts | 78° |
| 2026-04-30 14:12 | 37.48659 | 15.21800 | 5602 ft | 234 kts | 78° |
| 2026-04-30 14:12 | 37.48846 | 15.23146 | 5875 ft | 239 kts | 78° |
| 2026-04-30 14:13 | 37.49182 | 15.25933 | 6060 ft | 245 kts | 89° |
| 2026-04-30 14:13 | 37.48691 | 15.27979 | 6730 ft | 248 kts | 126° |
| 2026-04-30 14:13 | 37.47402 | 15.29327 | 7440 ft | 247 kts | 161° |
| 2026-04-30 14:13 | 37.45728 | 15.29795 | 8141 ft | 248 kts | 174° |
| 2026-04-30 14:14 | 37.44003 | 15.30064 | 8824 ft | 251 kts | 185° |
| 2026-04-30 14:14 | 37.42392 | 15.29422 | 9509 ft | 242 kts | 222° |
| 2026-04-30 14:14 | 37.41318 | 15.27791 | 9953 ft | 251 kts | 249° |
| 2026-04-30 14:14 | 37.40853 | 15.25592 | 10168 ft | 272 kts | 264° |
| 2026-04-30 14:15 | 37.40627 | 15.23126 | 10338 ft | 296 kts | 266° |
| 2026-04-30 14:15 | 37.40429 | 15.20446 | 10511 ft | 320 kts | 266° |
| 2026-04-30 14:15 | 37.40203 | 15.17564 | 10673 ft | 342 kts | 265° |
| 2026-04-30 14:15 | 37.39941 | 15.14523 | 11049 ft | 355 kts | 265° |
| 2026-04-30 14:16 | 37.39662 | 15.11428 | 11715 ft | 358 kts | 265° |
| 2026-04-30 14:16 | 37.39420 | 15.08310 | 12441 ft | 359 kts | 270° |
| 2026-04-30 14:16 | 37.39697 | 15.05198 | 13160 ft | 359 kts | 282° |
| 2026-04-30 14:16 | 37.40206 | 15.02114 | 13868 ft | 362 kts | 281° |
| 2026-04-30 14:17 | 37.40634 | 14.98976 | 14375 ft | 368 kts | 280° |
| 2026-04-30 14:17 | 37.41038 | 14.95768 | 14834 ft | 375 kts | 280° |
| 2026-04-30 14:17 | 37.41342 | 14.92477 | 14999 ft | 385 kts | 271° |
| 2026-04-30 14:17 | 37.40815 | 14.89121 | 15040 ft | 400 kts | 251° |
| 2026-04-30 14:18 | 37.39438 | 14.86059 | 15038 ft | 406 kts | 235° |
| 2026-04-30 14:18 | 37.37365 | 14.83624 | 15046 ft | 412 kts | 218° |
| 2026-04-30 14:18 | 37.32613 | 14.79578 | 15037 ft | 413 kts | 218° |
| 2026-04-30 14:19 | 37.27917 | 14.75503 | 15044 ft | 413 kts | 218° |
| 2026-04-30 14:19 | 37.25555 | 14.73441 | 15028 ft | 414 kts | 218° |
| 2026-04-30 14:19 | 37.23191 | 14.71375 | 15034 ft | 414 kts | 218° |
| 2026-04-30 14:20 | 37.20826 | 14.69307 | 15011 ft | 415 kts | 218° |
| 2026-04-30 14:20 | 37.18457 | 14.67237 | 15016 ft | 415 kts | 218° |
| 2026-04-30 14:20 | 37.13728 | 14.63111 | 15024 ft | 414 kts | 218° |
| 2026-04-30 14:21 | 37.11363 | 14.61049 | 15017 ft | 414 kts | 218° |
| 2026-04-30 14:21 | 37.09000 | 14.58991 | 15027 ft | 414 kts | 218° |
| 2026-04-30 14:21 | 37.04268 | 14.54874 | 15022 ft | 414 kts | 218° |
| 2026-04-30 14:22 | 37.01903 | 14.52818 | 15013 ft | 414 kts | 218° |
| 2026-04-30 14:22 | 36.97173 | 14.48714 | 15018 ft | 414 kts | 218° |
| 2026-04-30 14:22 | 36.94811 | 14.46664 | 15021 ft | 413 kts | 218° |
| 2026-04-30 14:23 | 36.90078 | 14.42566 | 15024 ft | 414 kts | 218° |
| 2026-04-30 14:23 | 36.85696 | 14.38026 | 15002 ft | 405 kts | 239° |
| 2026-04-30 14:24 | 36.83616 | 14.32860 | 15016 ft | 401 kts | 246° |
| 2026-04-30 14:24 | 36.82342 | 14.29757 | 15009 ft | 402 kts | 245° |
| 2026-04-30 14:25 | 36.79713 | 14.23588 | 15005 ft | 403 kts | 245° |
| 2026-04-30 14:25 | 36.77079 | 14.17421 | 15007 ft | 403 kts | 245° |
| 2026-04-30 14:26 | 36.74459 | 14.11250 | 15008 ft | 403 kts | 245° |
| 2026-04-30 14:26 | 36.73150 | 14.08164 | 15011 ft | 403 kts | 245° |
| 2026-04-30 14:26 | 36.70533 | 14.01994 | 15012 ft | 403 kts | 245° |
| 2026-04-30 14:27 | 36.69222 | 13.98907 | 15011 ft | 403 kts | 245° |
| 2026-04-30 14:27 | 36.67910 | 13.95822 | 15011 ft | 403 kts | 245° |
| 2026-04-30 14:27 | 36.66599 | 13.92740 | 15011 ft | 403 kts | 245° |
| 2026-04-30 14:28 | 36.63973 | 13.86579 | 15008 ft | 402 kts | 245° |
| 2026-04-30 14:28 | 36.62676 | 13.83539 | 15010 ft | 402 kts | 245° |
| 2026-04-30 14:28 | 36.61363 | 13.80465 | 15012 ft | 402 kts | 245° |
| 2026-04-30 14:28 | 36.60049 | 13.77390 | 15010 ft | 402 kts | 245° |
| 2026-04-30 14:29 | 36.57418 | 13.71246 | 15011 ft | 402 kts | 245° |
| 2026-04-30 14:29 | 36.54790 | 13.65116 | 15008 ft | 402 kts | 245° |
| 2026-04-30 14:30 | 36.50827 | 13.55896 | 15006 ft | 402 kts | 245° |
| 2026-04-30 14:31 | 36.48342 | 13.49679 | 15006 ft | 401 kts | 249° |
| 2026-04-30 14:31 | 36.46074 | 13.43353 | 15011 ft | 401 kts | 249° |
| 2026-04-30 14:31 | 36.44937 | 13.40191 | 15011 ft | 401 kts | 249° |
| 2026-04-30 14:32 | 36.42634 | 13.33877 | 15012 ft | 401 kts | 249° |
| 2026-04-30 14:32 | 36.41477 | 13.30728 | 15008 ft | 401 kts | 249° |
| 2026-04-30 14:32 | 36.40316 | 13.27576 | 15012 ft | 401 kts | 249° |
| 2026-04-30 14:33 | 36.39154 | 13.24425 | 15018 ft | 402 kts | 249° |
| 2026-04-30 14:33 | 36.35894 | 13.18955 | 15020 ft | 393 kts | 221° |
| 2026-04-30 14:33 | 36.33704 | 13.17018 | 15004 ft | 382 kts | 220° |
| 2026-04-30 14:34 | 36.31559 | 13.15103 | 15010 ft | 380 kts | 220° |
| 2026-04-30 14:34 | 36.29420 | 13.13166 | 14999 ft | 382 kts | 220° |
| 2026-04-30 14:34 | 36.27270 | 13.11206 | 14629 ft | 382 kts | 220° |
| 2026-04-30 14:34 | 36.25142 | 13.09263 | 14156 ft | 380 kts | 220° |
| 2026-04-30 14:35 | 36.20930 | 13.05412 | 13145 ft | 373 kts | 220° |
| 2026-04-30 14:35 | 36.18855 | 13.03515 | 12631 ft | 370 kts | 220° |
| 2026-04-30 14:35 | 36.16794 | 13.01632 | 12129 ft | 367 kts | 220° |
| 2026-04-30 14:36 | 36.14751 | 12.99767 | 11638 ft | 364 kts | 220° |
| 2026-04-30 14:36 | 36.12748 | 12.97939 | 11146 ft | 361 kts | 220° |
| 2026-04-30 14:36 | 36.10713 | 12.96084 | 10867 ft | 353 kts | 220° |
| 2026-04-30 14:36 | 36.08795 | 12.94340 | 10698 ft | 342 kts | 220° |
| 2026-04-30 14:37 | 36.06907 | 12.92624 | 10543 ft | 332 kts | 220° |
| 2026-04-30 14:37 | 36.05077 | 12.90960 | 10398 ft | 322 kts | 220° |
| 2026-04-30 14:37 | 36.03301 | 12.89345 | 10269 ft | 312 kts | 221° |
| 2026-04-30 14:37 | 36.01576 | 12.87776 | 10130 ft | 303 kts | 221° |
| 2026-04-30 14:38 | 35.99900 | 12.86253 | 9993 ft | 295 kts | 221° |
| 2026-04-30 14:38 | 35.98248 | 12.84751 | 9678 ft | 294 kts | 221° |
| 2026-04-30 14:38 | 35.96608 | 12.83259 | 9366 ft | 292 kts | 221° |
| 2026-04-30 14:38 | 35.94973 | 12.81774 | 9060 ft | 291 kts | 220° |
| 2026-04-30 14:39 | 35.93349 | 12.80300 | 8753 ft | 290 kts | 220° |
| 2026-04-30 14:39 | 35.91729 | 12.78831 | 8444 ft | 288 kts | 220° |
| 2026-04-30 14:39 | 35.90114 | 12.77367 | 8141 ft | 287 kts | 220° |
| 2026-04-30 14:40 | 35.86893 | 12.74451 | 7530 ft | 286 kts | 220° |